Time;durP1;ratioP1;P1;durP2;ratioP2;P2;SDS_P1;SDS_P2;PMS_P1;PMS_P2;Temp;Humidity;BMP_temperature;BMP_pressure;BME280_temperature;BME280_humidity;BME280_pressure;Samples;Min_cycle;Max_cycle;Signal;HPM_P1;HPM_P2
2021/01/08 00:01:41;;;;;;;17.20;10.85;;;1.40;99.90;;;;;;4974566;28;20042;-86
2021/01/08 00:04:07;;;;;;;16.58;9.70;;;1.40;99.90;;;;;;4975817;28;20149;-86
2021/01/08 00:06:34;;;;;;;17.27;10.88;;;1.30;99.90;;;;;;4974278;28;20054;-86
2021/01/08 00:09:00;;;;;;;15.82;9.68;;;1.40;99.90;;;;;;4973852;28;20070;-86
2021/01/08 00:11:26;;;;;;;15.18;9.38;;;1.40;99.90;;;;;;4975540;28;20022;-86
2021/01/08 00:13:52;;;;;;;13.95;9.27;;;1.40;99.90;;;;;;4975455;28;20027;-86
2021/01/08 00:16:18;;;;;;;15.13;9.23;;;1.50;99.90;;;;;;4974232;28;20117;-86
2021/01/08 00:18:45;;;;;;;15.15;10.07;;;1.50;99.90;;;;;;4974215;28;20153;-86
2021/01/08 00:21:11;;;;;;;14.90;9.20;;;1.50;99.90;;;;;;4974184;28;20026;-86
2021/01/08 00:23:36;;;;;;;14.75;9.38;;;1.40;99.90;;;;;;4974050;28;20121;-85
2021/01/08 00:26:02;;;;;;;15.98;9.82;;;1.30;99.90;;;;;;4975141;28;20095;-86
2021/01/08 00:28:29;;;;;;;14.75;8.63;;;1.40;99.90;;;;;;4973856;28;20384;-86
2021/01/08 00:30:55;;;;;;;15.40;9.85;;;1.50;99.90;;;;;;4975034;28;20023;-86
2021/01/08 00:33:20;;;;;;;15.63;10.15;;;1.40;99.90;;;;;;4974927;28;20129;-86
2021/01/08 00:35:46;;;;;;;13.85;9.35;;;1.40;99.90;;;;;;4974923;28;20037;-86
2021/01/08 00:38:12;;;;;;;18.15;10.45;;;1.40;99.90;;;;;;4973625;28;20107;-86
2021/01/08 00:40:37;;;;;;;14.63;9.23;;;1.30;99.90;;;;;;4973403;28;20121;-86
2021/01/08 00:43:03;;;;;;;16.15;9.93;;;1.40;99.90;;;;;;4973755;28;20486;-86
2021/01/08 00:45:29;;;;;;;14.95;9.57;;;1.40;99.90;;;;;;4973529;28;20474;-86
2021/01/08 00:47:55;;;;;;;17.08;10.20;;;1.50;99.90;;;;;;4974795;28;20026;-86
2021/01/08 00:50:21;;;;;;;15.60;9.98;;;1.50;99.90;;;;;;4973498;28;20427;-86
2021/01/08 00:52:47;;;;;;;15.52;9.85;;;1.40;99.90;;;;;;4974710;28;20127;-86
2021/01/08 00:55:12;;;;;;;14.13;9.60;;;1.40;99.90;;;;;;4973421;28;20066;-86
2021/01/08 00:57:38;;;;;;;15.65;9.75;;;1.50;99.90;;;;;;4974646;28;20023;-86
2021/01/08 01:00:06;;;;;;;15.68;9.93;;;1.30;99.90;;;;;;4973337;28;20054;-86
2021/01/08 01:02:33;;;;;;;17.25;10.48;;;1.20;99.90;;;;;;4973345;28;20019;-86
2021/01/08 01:04:59;;;;;;;16.63;9.60;;;1.10;99.90;;;;;;4974567;28;20023;-86
2021/01/08 01:07:24;;;;;;;14.55;9.98;;;1.20;99.90;;;;;;4973240;28;20025;-86
2021/01/08 01:09:50;;;;;;;15.40;9.90;;;1.10;99.90;;;;;;4973221;28;20019;-86
2021/01/08 01:12:16;;;;;;;15.00;9.23;;;1.10;99.90;;;;;;4974436;28;20027;-86
2021/01/08 01:14:42;;;;;;;17.83;9.73;;;1.20;99.90;;;;;;4974525;28;20022;-86
2021/01/08 01:17:07;;;;;;;16.70;10.07;;;1.20;99.90;;;;;;4973199;28;20467;-86
2021/01/08 01:19:33;;;;;;;16.83;11.15;;;1.10;99.90;;;;;;4974463;28;20472;-86
2021/01/08 01:21:59;;;;;;;17.17;10.48;;;1.00;99.90;;;;;;4991308;28;20061;-86
2021/01/08 01:24:25;;;;;;;14.27;9.18;;;1.00;99.90;;;;;;4976949;28;20470;-86
2021/01/08 01:26:55;;;;;;;15.68;9.60;;;1.10;99.90;;;;;;4977085;28;20019;-86
2021/01/08 01:29:24;;;;;;;15.38;9.85;;;1.20;99.90;;;;;;4978283;28;20023;-86
2021/01/08 01:31:50;;;;;;;14.88;10.07;;;1.30;99.90;;;;;;4978204;28;20030;-86
2021/01/08 01:34:16;;;;;;;16.85;10.20;;;1.20;99.90;;;;;;4978206;28;20027;-86
2021/01/08 01:36:42;;;;;;;15.35;9.30;;;1.10;99.90;;;;;;4976895;28;20031;-86
2021/01/08 01:39:08;;;;;;;14.98;9.70;;;1.00;99.90;;;;;;4976864;28;20069;-86
2021/01/08 01:41:34;;;;;;;14.02;8.70;;;1.00;99.90;;;;;;4976891;28;20082;-86
2021/01/08 01:44:00;;;;;;;16.13;9.60;;;1.10;99.90;;;;;;4976676;28;20414;-86
2021/01/08 01:46:26;;;;;;;15.48;8.90;;;1.20;99.90;;;;;;4977949;28;20031;-86
2021/01/08 01:48:52;;;;;;;13.27;8.68;;;1.30;99.90;;;;;;4977175;28;20025;-86
2021/01/08 01:51:20;;;;;;;15.05;9.13;;;1.20;99.90;;;;;;4978182;28;20098;-86
2021/01/08 01:53:48;;;;;;;14.35;9.23;;;1.10;99.90;;;;;;4977867;28;20026;-86
2021/01/08 01:56:13;;;;;;;13.85;8.68;;;1.10;99.90;;;;;;4976553;28;20101;-86
2021/01/08 01:58:39;;;;;;;12.07;8.32;;;1.10;99.90;;;;;;4976464;28;20039;-86
2021/01/08 02:01:05;;;;;;;13.98;8.60;;;1.10;99.90;;;;;;4976409;28;20034;-86
2021/01/08 02:03:50;;;;;;;11.93;8.48;;;1.00;99.90;;;;;;4977640;28;20081;-86
2021/01/08 02:06:20;;;;;;;12.75;8.43;;;1.00;99.90;;;;;;4977887;28;20018;-86
2021/01/08 02:08:57;;;;;;;13.38;8.40;;;1.00;99.90;;;;;;4976361;28;20109;-86
2021/01/08 02:11:32;;;;;;;11.38;7.10;;;1.10;99.90;;;;;;4977942;28;20054;-86
2021/01/08 02:14:14;;;;;;;10.00;7.25;;;1.20;99.90;;;;;;4976349;28;20478;-86
2021/01/08 02:16:43;;;;;;;12.52;7.75;;;1.20;99.90;;;;;;4977479;28;20391;-86
2021/01/08 02:19:24;;;;;;;13.35;7.90;;;1.30;99.90;;;;;;4976212;28;20058;-86
2021/01/08 02:22:04;;;;;;;12.48;7.30;;;1.20;99.90;;;;;;4976134;28;20073;-86
2021/01/08 02:24:39;;;;;;;11.15;7.22;;;1.20;99.90;;;;;;4977277;28;20026;-85
2021/01/08 02:27:05;;;;;;;12.05;7.80;;;1.20;99.90;;;;;;4977332;28;20025;-85
2021/01/08 02:29:31;;;;;;;9.98;7.20;;;1.20;99.90;;;;;;4975953;28;20030;-86
2021/01/08 02:31:58;;;;;;;11.20;7.75;;;1.10;99.90;;;;;;4975521;28;20023;-85
2021/01/08 02:34:24;;;;;;;12.60;7.50;;;1.10;99.90;;;;;;4975870;28;20046;-85
2021/01/08 02:36:51;;;;;;;11.32;6.95;;;1.10;99.90;;;;;;4977051;28;20038;-86
2021/01/08 02:39:17;;;;;;;10.73;7.25;;;1.10;99.90;;;;;;4975764;28;20039;-86
2021/01/08 02:41:45;;;;;;;10.68;7.35;;;1.20;99.90;;;;;;4975586;28;20059;-86
2021/01/08 02:44:18;;;;;;;12.57;7.93;;;1.20;99.90;;;;;;4975608;28;20058;-86
2021/01/08 02:46:45;;;;;;;10.50;6.60;;;1.20;99.90;;;;;;4975670;28;20027;-86
2021/01/08 02:49:10;;;;;;;10.45;6.60;;;1.20;99.90;;;;;;4976851;28;20033;-86
2021/01/08 02:51:37;;;;;;;11.18;6.93;;;1.10;99.90;;;;;;4975558;28;20109;-86
2021/01/08 02:54:04;;;;;;;11.70;6.90;;;1.20;99.90;;;;;;4976793;28;20030;-86
2021/01/08 02:56:43;;;;;;;11.80;7.47;;;1.20;99.90;;;;;;4975427;28;20122;-85
2021/01/08 02:59:10;;;;;;;11.50;7.47;;;1.10;99.90;;;;;;4975438;28;20035;-86
2021/01/08 03:01:37;;;;;;;9.48;6.88;;;1.20;99.90;;;;;;4975697;28;20049;-86
2021/01/08 03:04:03;;;;;;;13.05;7.65;;;1.20;99.90;;;;;;4976508;28;20035;-86
2021/01/08 03:06:30;;;;;;;11.95;7.38;;;1.30;99.90;;;;;;4976525;28;20027;-86
2021/01/08 03:08:58;;;;;;;13.93;7.40;;;1.20;99.90;;;;;;4975223;28;20029;-86
2021/01/08 03:11:23;;;;;;;12.15;7.28;;;1.20;99.90;;;;;;4975224;28;20429;-85
2021/01/08 03:13:50;;;;;;;10.77;7.47;;;1.10;99.90;;;;;;4976397;28;20102;-86
2021/01/08 03:16:16;;;;;;;11.57;6.88;;;1.10;99.90;;;;;;4976362;28;20027;-85
2021/01/08 03:18:42;;;;;;;11.55;7.18;;;1.20;99.90;;;;;;4976477;28;20034;-86
2021/01/08 03:21:07;;;;;;;11.65;7.45;;;1.30;99.90;;;;;;4974957;28;20068;-86
2021/01/08 03:23:33;;;;;;;10.18;7.50;;;1.20;99.90;;;;;;4976085;28;20058;-86
2021/01/08 03:25:59;;;;;;;13.15;8.10;;;1.20;99.90;;;;;;4976246;28;20022;-86
2021/01/08 03:28:24;;;;;;;12.43;7.15;;;1.20;99.90;;;;;;4974865;28;20027;-86
2021/01/08 03:30:50;;;;;;;11.38;7.30;;;1.20;99.90;;;;;;4974823;28;20057;-86
2021/01/08 03:33:16;;;;;;;9.15;6.38;;;1.20;99.90;;;;;;4974781;28;20030;-86
2021/01/08 03:35:42;;;;;;;13.10;6.88;;;1.20;99.90;;;;;;4976039;28;20058;-86
2021/01/08 03:38:07;;;;;;;11.57;7.07;;;1.20;99.90;;;;;;4975944;28;20086;-86
2021/01/08 03:40:35;;;;;;;11.45;6.57;;;1.10;99.90;;;;;;4974491;28;20043;-86
2021/01/08 03:43:01;;;;;;;10.45;7.20;;;1.10;99.90;;;;;;4974518;28;20038;-86
2021/01/08 03:45:27;;;;;;;10.45;6.95;;;1.20;99.90;;;;;;4975082;28;20115;-86
2021/01/08 03:47:52;;;;;;;9.00;6.30;;;1.20;99.90;;;;;;4974475;28;20521;-85
2021/01/08 03:50:18;;;;;;;11.18;5.97;;;1.10;99.90;;;;;;4974461;28;20030;-86
2021/01/08 03:52:44;;;;;;;9.52;6.28;;;1.10;99.90;;;;;;4976120;28;20031;-86
2021/01/08 03:55:10;;;;;;;10.65;6.38;;;1.20;99.90;;;;;;4975684;28;20034;-86
2021/01/08 03:57:35;;;;;;;7.93;5.40;;;1.20;99.90;;;;;;4974352;28;20027;-86
2021/01/08 04:00:03;;;;;;;9.75;6.50;;;1.20;99.90;;;;;;4975787;28;20030;-86
2021/01/08 04:02:29;;;;;;;8.00;5.40;;;1.30;99.90;;;;;;4974242;28;20114;-86
2021/01/08 04:04:54;;;;;;;8.95;6.30;;;1.30;99.90;;;;;;4974137;28;20174;-86
2021/01/08 04:07:20;;;;;;;10.82;6.35;;;1.30;99.90;;;;;;4974202;28;20386;-86
2021/01/08 04:09:46;;;;;;;8.90;5.93;;;1.10;99.90;;;;;;4974344;28;20382;-86
2021/01/08 04:12:12;;;;;;;9.18;6.57;;;1.10;99.90;;;;;;4974074;28;20481;-85
2021/01/08 04:14:38;;;;;;;9.02;5.97;;;0.90;99.90;;;;;;4975832;28;20031;-86
2021/01/08 04:17:04;;;;;;;10.88;6.93;;;0.90;99.90;;;;;;4975631;28;20033;-86
2021/01/08 04:19:29;;;;;;;10.13;7.00;;;0.80;99.90;;;;;;4973905;28;20038;-86
2021/01/08 04:21:55;;;;;;;10.30;6.57;;;0.80;99.90;;;;;;4974014;28;20098;-86
2021/01/08 04:24:21;;;;;;;10.18;6.65;;;0.60;99.90;;;;;;4974026;28;20030;-86
2021/01/08 04:26:46;;;;;;;12.40;7.18;;;0.60;99.90;;;;;;4975060;28;20031;-86
2021/01/08 04:29:12;;;;;;;11.13;7.15;;;0.50;99.90;;;;;;4973784;28;20059;-86
2021/01/08 04:31:38;;;;;;;10.25;6.55;;;0.50;99.90;;;;;;4974031;28;20073;-86
2021/01/08 04:34:04;;;;;;;11.52;6.30;;;0.60;99.90;;;;;;4973705;28;20037;-85
2021/01/08 04:36:30;;;;;;;8.60;5.80;;;0.70;99.90;;;;;;4974905;28;20034;-86
2021/01/08 04:38:55;;;;;;;12.90;6.68;;;0.70;99.90;;;;;;4973636;28;20033;-86
2021/01/08 04:41:22;;;;;;;8.35;5.68;;;0.90;99.90;;;;;;4974804;28;20047;-86
2021/01/08 04:43:48;;;;;;;8.98;5.70;;;1.00;99.90;;;;;;4973552;28;20030;-86
2021/01/08 04:46:27;;;;;;;8.02;5.78;;;1.00;99.90;;;;;;4974841;28;20487;-86
2021/01/08 04:48:57;;;;;;;6.85;4.82;;;1.00;99.90;;;;;;4975016;28;20054;-86
2021/01/08 04:51:24;;;;;;;9.27;5.82;;;1.00;99.90;;;;;;4973764;28;20027;-86
2021/01/08 04:53:51;;;;;;;8.35;5.38;;;1.00;99.90;;;;;;4974930;28;20065;-86
2021/01/08 04:56:20;;;;;;;8.23;5.47;;;1.10;99.90;;;;;;4974602;28;20101;-86
2021/01/08 04:58:47;;;;;;;7.65;4.93;;;1.10;99.90;;;;;;4974631;28;20047;-86
2021/01/08 05:01:13;;;;;;;7.05;5.07;;;1.20;99.90;;;;;;4973384;28;20537;-86
2021/01/08 05:03:38;;;;;;;7.70;4.72;;;1.20;99.90;;;;;;4973273;28;20023;-86
2021/01/08 05:06:04;;;;;;;7.38;5.22;;;1.30;99.90;;;;;;4973263;28;20077;-86
2021/01/08 05:08:30;;;;;;;9.32;5.60;;;1.20;99.90;;;;;;4973258;28;20038;-86
2021/01/08 05:10:56;;;;;;;7.20;4.60;;;1.20;99.90;;;;;;4973221;28;20023;-86
2021/01/08 05:13:34;;;;;;;6.03;4.78;;;1.30;99.90;;;;;;4973240;28;20065;-86
2021/01/08 05:16:01;;;;;;;7.72;4.53;;;1.20;99.90;;;;;;4973229;28;20509;-86
2021/01/08 05:18:29;;;;;;;8.93;4.93;;;1.20;99.90;;;;;;4974476;28;20023;-86
2021/01/08 05:20:55;;;;;;;7.07;5.25;;;1.30;99.90;;;;;;4974410;28;20058;-86
2021/01/08 05:23:22;;;;;;;11.80;4.80;;;1.20;99.90;;;;;;4974296;28;20062;-86
2021/01/08 05:25:49;;;;;;;6.47;4.28;;;1.20;99.90;;;;;;4973153;28;20114;-86
2021/01/08 05:28:18;;;;;;;7.15;4.47;;;1.20;99.90;;;;;;4973135;28;20026;-86
2021/01/08 05:30:45;;;;;;;7.53;4.47;;;1.20;99.90;;;;;;4973090;28;20023;-86
2021/01/08 05:33:16;;;;;;;7.00;4.60;;;1.20;99.90;;;;;;4973016;28;20031;-86
2021/01/08 05:35:43;;;;;;;7.15;4.82;;;1.20;99.90;;;;;;4973008;28;20030;-86
2021/01/08 05:38:10;;;;;;;7.03;4.70;;;1.20;99.90;;;;;;4973020;28;20034;-86
2021/01/08 05:40:41;;;;;;;11.68;5.05;;;1.20;99.90;;;;;;4972392;28;20070;-86
2021/01/08 05:43:08;;;;;;;7.80;4.63;;;1.20;99.90;;;;;;4971989;28;20081;-86
2021/01/08 05:45:35;;;;;;;7.80;4.65;;;1.10;99.90;;;;;;4972129;28;20027;-86
2021/01/08 05:48:04;;;;;;;7.00;4.63;;;1.10;99.90;;;;;;4972039;28;20031;-86
2021/01/08 05:50:30;;;;;;;8.13;4.53;;;1.20;99.90;;;;;;4973269;28;20042;-86
2021/01/08 05:53:07;;;;;;;7.60;4.28;;;1.20;99.90;;;;;;4971922;28;20030;-86
2021/01/08 05:55:40;;;;;;;6.68;4.55;;;1.20;99.90;;;;;;4971932;28;20055;-86
2021/01/08 05:58:22;;;;;;;8.55;4.63;;;1.20;99.90;;;;;;4973505;28;20027;-86
2021/01/08 06:01:00;;;;;;;9.20;4.70;;;1.20;99.90;;;;;;4971941;28;20034;-87
2021/01/08 06:03:27;;;;;;;6.13;4.35;;;1.20;99.90;;;;;;4973083;28;20127;-86
2021/01/08 06:05:58;;;;;;;5.65;4.20;;;1.20;99.90;;;;;;4971850;28;20034;-86
2021/01/08 06:08:28;;;;;;;6.43;4.25;;;1.20;99.90;;;;;;4975362;28;20039;-86
2021/01/08 06:10:56;;;;;;;7.00;4.82;;;1.20;99.90;;;;;;4975210;28;20027;-86
2021/01/08 06:13:27;;;;;;;8.90;5.82;;;1.20;99.90;;;;;;4975056;28;20046;-86
2021/01/08 06:15:55;;;;;;;11.57;7.53;;;1.20;99.90;;;;;;4975099;28;20023;-86
2021/01/08 06:18:23;;;;;;;10.73;6.40;;;1.20;99.90;;;;;;4976270;28;20031;-86
2021/01/08 06:20:52;;;;;;;10.23;5.60;;;1.10;99.90;;;;;;4974971;28;20031;-86
2021/01/08 06:23:41;;;;;;;7.63;4.32;;;1.20;99.90;;;;;;4976064;28;20070;-86
2021/01/08 06:26:12;;;;;;;7.05;4.30;;;1.30;99.90;;;;;;4976495;28;20379;-87
2021/01/08 06:28:51;;;;;;;6.70;4.45;;;1.20;99.90;;;;;;4974922;28;20023;-86
2021/01/08 06:31:23;;;;;;;6.88;4.72;;;1.30;99.90;;;;;;4974874;28;20540;-86
2021/01/08 06:33:59;;;;;;;6.20;4.15;;;1.30;99.90;;;;;;4974774;28;20027;-86
2021/01/08 06:36:27;;;;;;;5.65;3.90;;;1.30;99.90;;;;;;4974897;28;20026;-87
2021/01/08 06:38:58;;;;;;;6.63;4.22;;;1.40;99.90;;;;;;4974710;28;20540;-86
2021/01/08 06:41:24;;;;;;;6.40;4.07;;;1.30;99.90;;;;;;4952555;28;661411;-86
2021/01/08 06:44:00;;;;;;;5.25;4.05;;;1.20;99.90;;;;;;4975609;28;20063;-86
2021/01/08 06:46:37;;;;;;;6.03;4.60;;;1.30;99.90;;;;;;4977327;28;20031;-86
2021/01/08 06:49:08;;;;;;;6.60;4.50;;;1.20;99.90;;;;;;4975741;28;20075;-87
2021/01/08 06:51:35;;;;;;;6.72;3.78;;;1.20;99.90;;;;;;4975622;28;20105;-86
2021/01/08 06:54:06;;;;;;;6.50;4.57;;;1.20;99.90;;;;;;4975540;28;20031;-86
2021/01/08 06:56:34;;;;;;;6.15;4.30;;;1.10;99.90;;;;;;4975488;28;20085;-86
2021/01/08 06:59:02;;;;;;;6.32;4.15;;;1.10;99.90;;;;;;4975733;28;20027;-86
2021/01/08 07:01:47;;;;;;;6.25;4.20;;;1.10;99.90;;;;;;4976734;28;20034;-86
2021/01/08 07:04:13;;;;;;;;;;;1.20;99.90;;;;;;4976950;28;20035;-86
2021/01/08 07:06:41;;;;;;;8.20;4.38;;;1.20;99.90;;;;;;4975299;28;20278;-86
2021/01/08 07:09:07;;;;;;;6.97;4.40;;;1.10;99.90;;;;;;4975256;28;20023;-87
2021/01/08 07:11:35;;;;;;;7.88;4.78;;;1.10;99.90;;;;;;4975251;28;20495;-86
2021/01/08 07:14:05;;;;;;;5.95;4.13;;;1.10;99.90;;;;;;4975156;28;20074;-86
2021/01/08 07:16:31;;;;;;;6.68;4.50;;;1.20;99.90;;;;;;4975115;28;20502;-86
2021/01/08 07:19:09;;;;;;;5.90;4.00;;;1.10;99.90;;;;;;4975406;28;20031;-86
2021/01/08 07:21:40;;;;;;;7.80;5.10;;;1.00;99.90;;;;;;4976327;28;20027;-86
2021/01/08 07:24:10;;;;;;;6.85;4.38;;;1.00;99.90;;;;;;4974901;28;20058;-86
2021/01/08 07:26:36;;;;;;;6.82;4.40;;;1.00;99.90;;;;;;4975832;28;20027;-87
2021/01/08 07:29:02;;;;;;;7.18;4.53;;;1.10;99.90;;;;;;4975113;28;20027;-86
2021/01/08 07:31:31;;;;;;;7.95;5.18;;;1.10;99.90;;;;;;4974829;28;20049;-86
2021/01/08 07:33:58;;;;;;;6.05;4.00;;;1.20;99.90;;;;;;4974823;28;20509;-87
2021/01/08 07:36:28;;;;;;;6.22;4.10;;;1.30;99.90;;;;;;4974801;28;20490;-86
2021/01/08 07:38:55;;;;;;;5.95;4.07;;;1.30;99.90;;;;;;4976252;28;20020;-86
2021/01/08 07:41:32;;;;;;;6.15;3.85;;;1.20;99.90;;;;;;4974589;28;20105;-86
2021/01/08 07:43:57;;;;;;;6.75;3.50;;;1.30;99.90;;;;;;4974607;28;20050;-86
2021/01/08 07:46:33;;;;;;;5.18;3.60;;;1.20;99.90;;;;;;4974610;28;20479;-86
2021/01/08 07:49:01;;;;;;;7.93;4.55;;;1.20;99.90;;;;;;4974564;28;20549;-86
2021/01/08 07:51:47;;;;;;;5.68;3.88;;;1.30;99.90;;;;;;4974508;28;20505;-86
2021/01/08 07:54:16;;;;;;;6.78;3.60;;;1.40;99.90;;;;;;4974460;28;20069;-86
2021/01/08 07:57:05;;;;;;;5.72;3.83;;;1.30;99.90;;;;;;4974367;28;20022;-86
2021/01/08 07:59:31;;;;;;;7.53;4.40;;;1.30;99.90;;;;;;4974511;28;20034;-85
2021/01/08 08:01:56;;;;;;;7.05;4.05;;;1.20;99.90;;;;;;4974440;28;20113;-85
2021/01/08 08:04:26;;;;;;;6.68;3.63;;;1.20;99.90;;;;;;4975525;28;20110;-85
2021/01/08 08:06:52;;;;;;;5.57;3.80;;;1.10;99.90;;;;;;4974524;28;20029;-85
2021/01/08 08:09:18;;;;;;;5.85;3.60;;;1.10;99.90;;;;;;4975973;28;20031;-85
2021/01/08 08:11:44;;;;;;;5.00;3.30;;;1.20;99.90;;;;;;4974555;28;20110;-85
2021/01/08 08:14:28;;;;;;;4.57;3.42;;;1.20;99.90;;;;;;4974075;28;20465;-84
2021/01/08 08:16:54;;;;;;;5.93;3.80;;;1.20;99.90;;;;;;4974092;28;20393;-85
2021/01/08 08:19:19;;;;;;;5.68;4.05;;;1.10;99.90;;;;;;4973897;28;20035;-85
2021/01/08 08:21:50;;;;;;;6.68;3.80;;;1.20;99.90;;;;;;4973965;28;20483;-85
2021/01/08 08:24:17;;;;;;;6.28;3.85;;;1.30;99.90;;;;;;4975024;28;20023;-85
2021/01/08 08:26:45;;;;;;;5.75;3.72;;;1.20;99.90;;;;;;4973872;28;20031;-85
2021/01/08 08:29:13;;;;;;;5.20;3.67;;;1.30;99.90;;;;;;4973802;28;20386;-86
2021/01/08 08:31:46;;;;;;;6.95;3.90;;;1.40;99.90;;;;;;4973463;28;20027;-85
2021/01/08 08:34:14;;;;;;;4.53;3.50;;;1.40;99.90;;;;;;4973786;28;20042;-85
2021/01/08 08:36:41;;;;;;;11.85;6.25;;;1.50;99.90;;;;;;4973696;28;20058;-85
2021/01/08 08:39:14;;;;;;;10.63;6.57;;;1.50;99.90;;;;;;4973670;28;20479;-85
2021/01/08 08:41:44;;;;;;;9.68;6.07;;;1.50;99.90;;;;;;4973466;28;20506;-85
2021/01/08 08:44:15;;;;;;;6.63;5.00;;;1.40;99.90;;;;;;4974181;28;20033;-86
2021/01/08 08:46:52;;;;;;;5.95;3.83;;;1.40;99.90;;;;;;4975562;28;20018;-86
2021/01/08 08:49:20;;;;;;;5.25;3.53;;;1.60;99.90;;;;;;4973991;28;20026;-86
2021/01/08 08:51:50;;;;;;;6.32;3.88;;;1.70;99.90;;;;;;4975409;28;20027;-86
2021/01/08 08:54:16;;;;;;;7.97;4.13;;;1.80;99.90;;;;;;4975748;28;20431;-86
2021/01/08 08:56:48;;;;;;;6.68;4.95;;;2.20;99.90;;;;;;4973803;28;20081;-87
2021/01/08 08:59:15;;;;;;;8.20;5.03;;;2.30;99.90;;;;;;4973824;28;20027;-86
2021/01/08 09:01:41;;;;;;;6.18;4.53;;;2.70;99.90;;;;;;4973789;28;20026;-86
2021/01/08 09:04:08;;;;;;;10.05;5.47;;;3.10;99.90;;;;;;4974840;28;20070;-87
2021/01/08 09:06:37;;;;;;;5.82;3.78;;;3.40;99.90;;;;;;4973347;28;20077;-86
2021/01/08 09:09:19;;;;;;;5.45;3.50;;;3.60;99.90;;;;;;4974756;28;20031;-88
2021/01/08 09:11:55;;;;;;;4.13;2.85;;;3.40;99.90;;;;;;4973554;28;20023;-87
2021/01/08 09:14:40;;;;;;;4.03;2.63;;;3.40;99.90;;;;;;4973723;28;20058;-88
2021/01/08 09:17:11;;;;;;;;;;;3.10;99.90;;;;;;4975392;28;20533;-88
2021/01/08 09:19:55;;;;;;;4.47;2.97;;;3.00;99.90;;;;;;4973528;28;20382;-88
2021/01/08 09:22:29;;;;;;;4.63;3.17;;;2.90;99.90;;;;;;4973354;28;20097;-88
2021/01/08 09:24:59;;;;;;;5.10;2.80;;;2.90;99.90;;;;;;4973344;28;20027;-89
2021/01/08 09:27:25;;;;;;;4.07;2.83;;;2.80;99.90;;;;;;4973724;28;20030;-87
2021/01/08 09:29:51;;;;;;;4.63;3.33;;;2.70;99.90;;;;;;4974617;28;20077;-87
2021/01/08 09:32:30;;;;;;;4.30;3.45;;;2.60;99.90;;;;;;4973318;28;20023;-87
2021/01/08 09:34:59;;;;;;;4.30;3.03;;;2.60;99.90;;;;;;4973196;28;20027;-85
2021/01/08 09:37:32;;;;;;;5.47;3.30;;;2.50;99.90;;;;;;4974496;28;20047;-86
2021/01/08 09:39:59;;;;;;;6.20;3.33;;;2.50;99.90;;;;;;4972998;28;20046;-84
2021/01/08 09:42:25;;;;;;;4.85;3.03;;;2.50;99.90;;;;;;4974044;28;20375;-85
2021/01/08 09:44:51;;;;;;;4.88;3.25;;;2.50;99.90;;;;;;4976824;28;20501;-86
2021/01/08 09:47:16;;;;;;;5.10;2.95;;;2.60;99.90;;;;;;4976966;28;20019;-87
2021/01/08 09:49:45;;;;;;;4.28;2.95;;;2.70;99.90;;;;;;4977157;28;20336;-90
2021/01/08 09:52:12;;;;;;;5.07;2.95;;;2.70;99.90;;;;;;4976886;28;20482;-86
2021/01/08 09:54:48;;;;;;;8.07;4.07;;;2.60;99.90;;;;;;4977999;28;20037;-85
2021/01/08 09:57:27;;;;;;;4.13;2.85;;;2.60;99.90;;;;;;4976523;28;20031;-84
2021/01/08 10:00:00;;;;;;;7.13;3.58;;;2.60;99.90;;;;;;4976712;28;20038;-85
2021/01/08 10:02:52;;;;;;;4.72;2.80;;;2.60;99.90;;;;;;4976396;28;20078;-85
2021/01/08 10:05:26;;;;;;;7.22;3.00;;;2.40;99.90;;;;;;4973062;28;20046;-85
2021/01/08 10:07:52;;;;;;;;;;;2.40;99.90;;;;;;4978325;28;20031;-85
2021/01/08 10:10:27;;;;;;;4.78;2.97;;;2.40;99.90;;;;;;4976385;28;19915;-85
2021/01/08 10:12:55;;;;;;;5.65;3.65;;;2.30;99.90;;;;;;4976336;28;20033;-84
2021/01/08 10:15:34;;;;;;;4.70;3.28;;;2.10;99.90;;;;;;4976237;28;20022;-85
2021/01/08 10:18:10;;;;;;;5.53;3.22;;;2.30;99.90;;;;;;4976231;28;20031;-85
2021/01/08 10:20:42;;;;;;;15.45;7.65;;;2.30;99.90;;;;;;4977473;28;20033;-83
2021/01/08 10:23:13;;;;;;;4.30;3.17;;;2.20;99.90;;;;;;4975992;28;20486;-84
2021/01/08 10:25:39;;;;;;;11.52;5.80;;;2.20;99.90;;;;;;4977287;28;20106;-86
2021/01/08 10:28:15;;;;;;;6.15;4.15;;;2.40;99.90;;;;;;4977330;28;20466;-85
2021/01/08 10:30:42;;;;;;;7.18;3.50;;;2.40;99.90;;;;;;4976036;28;20102;-85
2021/01/08 10:33:09;;;;;;;4.90;3.63;;;2.30;99.90;;;;;;4977290;28;20045;-85
2021/01/08 10:35:38;;;;;;;6.88;3.55;;;2.40;99.90;;;;;;4976025;28;20486;-86
2021/01/08 10:38:04;;;;;;;6.38;3.88;;;2.40;99.90;;;;;;4977386;28;20023;-86
2021/01/08 10:40:30;;;;;;;9.27;4.22;;;2.20;99.90;;;;;;4975705;28;20059;-86
2021/01/08 10:42:56;;;;;;;5.80;4.25;;;2.10;99.90;;;;;;4975838;28;20023;-86
2021/01/08 10:45:23;;;;;;;11.02;4.40;;;2.20;99.90;;;;;;4976892;28;20023;-86
2021/01/08 10:47:48;;;;;;;7.63;4.28;;;2.40;99.90;;;;;;4975689;28;20027;-84
2021/01/08 10:50:14;;;;;;;8.75;4.00;;;2.40;99.90;;;;;;4977025;28;20023;-84
2021/01/08 10:52:42;;;;;;;9.57;4.38;;;2.50;99.90;;;;;;4975407;28;20024;-85
2021/01/08 10:55:11;;;;;;;5.78;3.75;;;2.60;99.90;;;;;;4975550;28;20557;-85
2021/01/08 10:58:04;;;;;;;6.63;3.90;;;2.70;99.90;;;;;;4975603;28;20117;-85
2021/01/08 11:00:31;;;;;;;5.50;3.55;;;2.80;99.90;;;;;;4974259;28;20495;-85
2021/01/08 11:03:00;;;;;;;6.40;4.72;;;2.80;99.90;;;;;;4975438;28;20037;-83
2021/01/08 11:05:27;;;;;;;7.60;3.80;;;2.70;99.90;;;;;;4976308;28;20023;-89
2021/01/08 11:07:52;;;;;;;6.00;3.47;;;2.70;99.90;;;;;;4976168;28;20023;-83
2021/01/08 11:10:18;;;;;;;8.27;3.95;;;2.70;99.90;;;;;;4976749;28;20555;-83
2021/01/08 11:12:44;;;;;;;5.00;3.50;;;2.80;99.90;;;;;;4975230;28;20368;-83
2021/01/08 11:15:11;;;;;;;5.57;3.33;;;2.70;99.90;;;;;;4976482;28;20062;-82
2021/01/08 11:17:37;;;;;;;5.35;3.55;;;2.80;99.90;;;;;;4976378;28;20030;-82
2021/01/08 11:20:04;;;;;;;6.35;3.20;;;2.70;99.90;;;;;;4976516;28;20035;-83
2021/01/08 11:22:30;;;;;;;7.95;3.53;;;2.60;99.90;;;;;;4975003;28;20022;-84
2021/01/08 11:24:55;;;;;;;5.05;3.47;;;2.70;99.90;;;;;;4976143;28;20031;-84
2021/01/08 11:27:21;;;;;;;5.32;3.55;;;2.70;99.90;;;;;;4976211;28;20054;-85
2021/01/08 11:29:47;;;;;;;5.97;3.08;;;2.70;99.90;;;;;;4976160;28;20047;-86
2021/01/08 11:32:13;;;;;;;5.45;3.40;;;2.60;99.90;;;;;;4974908;28;20073;-84
2021/01/08 11:34:40;;;;;;;5.45;3.15;;;2.70;99.90;;;;;;4976342;28;20031;-84
2021/01/08 11:37:09;;;;;;;7.45;3.28;;;2.80;99.90;;;;;;4974773;28;20031;-84
2021/01/08 11:39:35;;;;;;;5.30;3.13;;;2.70;99.90;;;;;;4974620;28;20030;-83
2021/01/08 11:42:01;;;;;;;4.43;3.03;;;2.80;99.90;;;;;;4974541;28;20050;-83
2021/01/08 11:44:27;;;;;;;5.18;3.15;;;2.80;99.90;;;;;;4974581;28;20086;-84
2021/01/08 11:46:52;;;;;;;4.97;3.25;;;2.80;99.90;;;;;;4974650;28;20027;-84
2021/01/08 11:49:18;;;;;;;4.13;3.25;;;2.80;99.90;;;;;;4974584;28;20105;-82
2021/01/08 11:51:45;;;;;;;5.93;3.47;;;2.80;99.90;;;;;;4974575;28;20501;-84
2021/01/08 11:54:11;;;;;;;5.05;3.22;;;2.80;99.90;;;;;;4975705;28;20038;-84
2021/01/08 11:56:37;;;;;;;5.65;3.70;;;2.70;99.90;;;;;;4974472;28;20113;-85
2021/01/08 11:59:03;;;;;;;4.53;2.90;;;2.70;99.90;;;;;;4974382;28;20058;-86
2021/01/08 12:01:30;;;;;;;5.57;4.07;;;2.60;99.90;;;;;;4974579;28;20508;-85
2021/01/08 12:03:58;;;;;;;7.43;3.55;;;2.60;99.90;;;;;;4974519;28;20031;-86
2021/01/08 12:06:25;;;;;;;5.30;3.30;;;2.70;99.90;;;;;;4973707;28;20033;-86
2021/01/08 12:08:51;;;;;;;5.10;3.25;;;2.70;99.90;;;;;;4974282;28;20437;-84
2021/01/08 12:11:17;;;;;;;4.85;3.20;;;2.70;99.90;;;;;;4974188;28;20046;-83
2021/01/08 12:13:45;;;;;;;5.38;3.80;;;2.60;99.90;;;;;;4974284;28;20033;-84
2021/01/08 12:16:11;;;;;;;5.63;3.83;;;2.60;99.90;;;;;;4973794;28;20042;-84
2021/01/08 12:18:37;;;;;;;7.72;3.78;;;2.60;99.90;;;;;;4975247;28;20023;-85
2021/01/08 12:21:06;;;;;;;5.93;4.03;;;2.60;99.90;;;;;;4974025;28;20122;-85
2021/01/08 12:23:32;;;;;;;5.53;3.50;;;2.60;99.90;;;;;;4973799;28;20095;-84
2021/01/08 12:25:58;;;;;;;8.02;3.88;;;2.60;99.90;;;;;;4974101;28;20379;-83
2021/01/08 12:28:27;;;;;;;5.82;3.75;;;2.60;99.90;;;;;;4973884;28;20092;-82
2021/01/08 12:30:53;;;;;;;6.82;3.78;;;2.60;99.90;;;;;;4973809;28;20423;-82
2021/01/08 12:33:19;;;;;;;7.10;4.18;;;2.50;99.90;;;;;;4973781;28;20026;-82
2021/01/08 12:35:45;;;;;;;5.65;3.67;;;2.50;99.90;;;;;;4973751;28;20023;-83
2021/01/08 12:38:11;;;;;;;6.05;4.60;;;2.40;99.90;;;;;;4973596;28;20027;-83
2021/01/08 12:40:37;;;;;;;7.47;4.55;;;2.40;99.90;;;;;;4973328;28;20054;-83
2021/01/08 12:43:03;;;;;;;6.68;3.92;;;2.40;99.90;;;;;;4973625;28;20019;-84
2021/01/08 12:45:29;;;;;;;8.77;4.00;;;2.50;99.90;;;;;;4973616;28;20054;-84
2021/01/08 12:47:54;;;;;;;5.75;4.00;;;2.50;99.90;;;;;;4973528;28;20033;-83
2021/01/08 12:50:20;;;;;;;6.78;4.07;;;2.60;99.90;;;;;;4973581;28;20033;-84
2021/01/08 12:52:46;;;;;;;8.35;4.47;;;2.60;99.90;;;;;;4973540;28;20022;-83
2021/01/08 12:55:13;;;;;;;6.97;4.28;;;2.60;99.90;;;;;;4974779;28;20545;-84
2021/01/08 12:57:39;;;;;;;6.55;4.18;;;2.70;99.90;;;;;;4973484;28;20390;-83
2021/01/08 13:00:07;;;;;;;6.70;3.97;;;2.80;99.90;;;;;;4974698;28;20057;-83